Time;durP1;ratioP1;P1;durP2;ratioP2;P2;SDS_P1;SDS_P2;PMS_P1;PMS_P2;Temp;Humidity;BMP_temperature;BMP_pressure;BME280_temperature;BME280_humidity;BME280_pressure;Samples;Min_cycle;Max_cycle;Signal;HPM_P1;HPM_P2
2023/10/11 00:00:52;;;;;;;5.50;2.55;;;16.20;99.90;;;;;;7392569;19;20595;-79
2023/10/11 00:03:32;;;;;;;4.05;1.65;;;16.40;99.90;;;;;;7390457;19;20155;-79
2023/10/11 00:06:04;;;;;;;4.55;1.80;;;16.60;99.90;;;;;;7389070;19;20178;-78
2023/10/11 00:08:39;;;;;;;3.42;1.92;;;16.40;99.90;;;;;;7392085;19;20135;-78
2023/10/11 00:11:07;;;;;;;3.75;1.58;;;16.10;99.90;;;;;;7390291;19;21319;-78
2023/10/11 00:13:35;;;;;;;3.85;1.77;;;16.00;99.90;;;;;;7392219;19;21031;-78
2023/10/11 00:16:08;;;;;;;5.53;1.88;;;16.20;99.90;;;;;;7390669;19;20135;-78
2023/10/11 00:18:39;;;;;;;2.90;1.60;;;16.40;99.90;;;;;;7391734;19;20154;-77
2023/10/11 00:21:12;;;;;;;2.90;1.90;;;16.40;99.90;;;;;;7393270;19;20158;-80
2023/10/11 00:23:51;;;;;;;2.67;1.70;;;16.50;99.90;;;;;;7392586;19;20600;-80
2023/10/11 00:26:18;;;;;;;3.30;1.38;;;16.50;99.90;;;;;;7393207;19;20582;-79
2023/10/11 00:28:44;;;;;;;3.33;1.92;;;16.50;99.90;;;;;;7389644;19;20531;-79
2023/10/11 00:31:18;;;;;;;2.38;1.55;;;16.20;99.90;;;;;;7392389;19;20170;-79
2023/10/11 00:33:45;;;;;;;3.28;1.58;;;15.80;99.90;;;;;;7387609;19;20635;-77
2023/10/11 00:36:11;;;;;;;3.30;2.13;;;15.70;99.90;;;;;;7391710;19;20146;-79
2023/10/11 00:38:50;;;;;;;2.33;1.58;;;15.80;99.90;;;;;;7390108;19;20149;-79
2023/10/11 00:41:18;;;;;;;3.83;1.50;;;15.70;99.90;;;;;;7389452;19;20457;-79
2023/10/11 00:43:47;;;;;;;3.22;1.65;;;15.80;99.90;;;;;;7389913;19;20139;-79
2023/10/11 00:46:14;;;;;;;3.67;1.90;;;16.10;99.90;;;;;;7390570;19;20596;-80
2023/10/11 00:48:53;;;;;;;3.80;1.90;;;16.20;99.90;;;;;;7390842;19;20328;-79
2023/10/11 00:51:26;;;;;;;3.70;2.20;;;16.40;99.90;;;;;;7391559;19;20134;-80
2023/10/11 00:53:53;;;;;;;5.40;2.47;;;16.40;99.90;;;;;;7388702;19;20131;-80
2023/10/11 00:56:20;;;;;;;3.80;2.08;;;16.40;99.90;;;;;;7389821;19;20208;-78
2023/10/11 00:58:49;;;;;;;3.53;1.77;;;16.30;99.90;;;;;;7390233;19;20142;-79
2023/10/11 01:01:16;;;;;;;3.65;2.28;;;16.20;99.90;;;;;;7388829;19;20150;-80
2023/10/11 01:03:41;;;;;;;5.07;1.95;;;16.10;99.90;;;;;;7391369;19;20130;-80
2023/10/11 01:06:10;;;;;;;3.05;1.83;;;16.00;99.90;;;;;;7385939;19;20600;-79
2023/10/11 01:08:40;;;;;;;2.10;1.48;;;15.90;99.90;;;;;;7391374;19;20139;-80
2023/10/11 01:11:13;;;;;;;2.65;1.90;;;15.90;99.90;;;;;;7392690;19;20179;-80
2023/10/11 01:13:41;;;;;;;3.35;1.70;;;16.20;99.90;;;;;;7388096;19;20540;-79
2023/10/11 01:16:10;;;;;;;3.88;1.48;;;15.80;99.90;;;;;;7391172;19;20654;-78
2023/10/11 01:18:40;;;;;;;2.22;1.33;;;15.70;99.90;;;;;;7389726;19;20154;-79
2023/10/11 01:21:07;;;;;;;2.45;1.58;;;15.60;99.90;;;;;;7388834;19;20154;-79
2023/10/11 01:23:36;;;;;;;2.80;1.85;;;15.60;99.90;;;;;;7390691;19;20138;-78
2023/10/11 01:26:09;;;;;;;3.80;1.20;;;15.80;99.90;;;;;;7386630;19;20150;-79
2023/10/11 01:28:36;;;;;;;3.67;1.92;;;15.60;99.90;;;;;;7389276;19;20598;-78
2023/10/11 01:31:08;;;;;;;3.80;1.50;;;15.60;99.90;;;;;;7391575;19;20223;-80
2023/10/11 01:33:41;;;;;;;3.40;1.35;;;15.50;99.90;;;;;;7386656;19;20151;-78
2023/10/11 01:36:14;;;;;;;3.38;1.80;;;15.50;99.90;;;;;;7391851;19;20142;-79
2023/10/11 01:38:48;;;;;;;1.73;1.10;;;15.40;99.90;;;;;;7391004;19;20583;-80
2023/10/11 01:41:20;;;;;;;4.40;1.70;;;15.30;99.90;;;;;;7388217;19;20511;-80
2023/10/11 01:43:46;;;;;;;1.80;1.40;;;15.30;99.90;;;;;;7390973;19;20127;-78
2023/10/11 01:46:24;;;;;;;2.05;1.23;;;15.20;99.90;;;;;;7381403;19;20166;-80
2023/10/11 01:48:51;;;;;;;3.50;1.52;;;15.30;99.90;;;;;;7389844;19;20190;-78
2023/10/11 01:51:21;;;;;;;3.10;1.70;;;15.30;99.90;;;;;;7391128;19;20134;-79
2023/10/11 01:53:47;;;;;;;2.42;1.20;;;15.40;99.90;;;;;;7387726;19;20158;-77
2023/10/11 01:56:13;;;;;;;2.95;1.80;;;15.30;99.90;;;;;;7390280;19;20213;-78
2023/10/11 01:58:43;;;;;;;3.40;1.50;;;15.20;99.90;;;;;;7387485;19;20151;-78
2023/10/11 02:01:23;;;;;;;2.72;1.40;;;15.30;99.90;;;;;;7389225;19;20138;-80
2023/10/11 02:03:56;;;;;;;2.75;1.83;;;15.30;99.90;;;;;;7386089;19;20882;-79
2023/10/11 02:06:23;;;;;;;2.65;1.48;;;15.30;99.90;;;;;;7389986;19;20158;-80
2023/10/11 02:08:53;;;;;;;4.18;1.60;;;15.10;99.90;;;;;;7387829;19;20146;-79
2023/10/11 02:11:24;;;;;;;2.05;1.40;;;15.20;99.90;;;;;;7391503;19;20135;-79
2023/10/11 02:13:50;;;;;;;3.83;1.80;;;15.20;99.90;;;;;;7386709;19;20145;-79
2023/10/11 02:16:16;;;;;;;2.60;1.50;;;15.10;99.90;;;;;;7388843;19;20193;-78
2023/10/11 02:18:43;;;;;;;2.80;1.60;;;15.10;99.90;;;;;;7387672;19;20146;-79
2023/10/11 02:21:08;;;;;;;2.30;1.65;;;15.20;99.90;;;;;;7389483;19;20138;-79
2023/10/11 02:23:39;;;;;;;2.30;1.67;;;15.40;99.90;;;;;;7391232;19;20139;-79
2023/10/11 02:26:12;;;;;;;2.08;1.10;;;15.50;99.90;;;;;;7385680;19;20612;-79
2023/10/11 02:28:42;;;;;;;2.55;1.55;;;15.30;99.90;;;;;;7392141;19;20138;-78
2023/10/11 02:31:08;;;;;;;3.65;1.70;;;15.20;99.90;;;;;;7387039;19;20608;-79
2023/10/11 02:33:34;;;;;;;2.00;1.52;;;15.20;99.90;;;;;;7390684;19;20180;-79
2023/10/11 02:36:08;;;;;;;3.83;1.80;;;15.30;99.90;;;;;;7386338;19;20158;-79
2023/10/11 02:38:40;;;;;;;2.08;1.05;;;15.30;99.90;;;;;;7388108;19;20157;-79
2023/10/11 02:41:07;;;;;;;2.58;1.70;;;15.30;99.90;;;;;;7387065;19;20145;-79
2023/10/11 02:43:33;;;;;;;4.80;1.60;;;15.30;99.90;;;;;;7390094;19;20138;-79
2023/10/11 02:46:02;;;;;;;1.40;1.00;;;15.30;99.90;;;;;;7388371;19;20468;-80
2023/10/11 02:48:28;;;;;;;1.95;1.60;;;15.20;99.90;;;;;;7385554;19;20165;-79
2023/10/11 02:50:57;;;;;;;1.30;1.15;;;15.30;99.90;;;;;;7386039;19;20146;-79
2023/10/11 02:53:23;;;;;;;2.13;1.50;;;15.30;99.90;;;;;;7388602;19;20210;-79
2023/10/11 02:56:03;;;;;;;2.17;1.77;;;15.30;99.90;;;;;;7386822;19;20160;-78
2023/10/11 02:58:31;;;;;;;1.98;1.50;;;15.10;99.90;;;;;;7385440;19;20602;-79
2023/10/11 03:01:10;;;;;;;2.55;1.42;;;15.10;99.90;;;;;;7386530;19;20154;-78
2023/10/11 03:03:38;;;;;;;2.00;1.58;;;15.20;99.90;;;;;;7384015;19;20142;-79
2023/10/11 03:06:07;;;;;;;2.80;1.65;;;15.30;99.90;;;;;;7385985;19;20484;-79
2023/10/11 03:08:34;;;;;;;2.05;1.40;;;15.20;99.90;;;;;;7386735;19;20142;-79
2023/10/11 03:11:04;;;;;;;2.17;1.25;;;15.30;99.90;;;;;;7386715;19;20491;-79
2023/10/11 03:13:32;;;;;;;2.20;1.35;;;15.30;99.90;;;;;;7385653;19;20164;-79
2023/10/11 03:16:00;;;;;;;1.48;1.20;;;15.50;99.90;;;;;;7382755;19;20180;-78
2023/10/11 03:18:33;;;;;;;2.70;1.10;;;15.20;99.90;;;;;;7385457;19;20139;-79
2023/10/11 03:21:19;;;;;;;3.13;1.42;;;15.20;99.90;;;;;;7384959;19;20489;-77
2023/10/11 03:24:03;;;;;;;1.55;1.25;;;15.30;99.90;;;;;;7386903;19;20467;-80
2023/10/11 03:28:57;;;;;;;2.60;1.58;;;15.60;99.90;;;;;;7386128;19;20143;-79
2023/10/11 03:31:27;;;;;;;3.70;1.83;;;15.50;99.90;;;;;;7385460;19;20134;-80
2023/10/11 03:33:57;;;;;;;1.85;1.38;;;15.40;99.90;;;;;;7387739;19;20135;-78
2023/10/11 03:36:43;;;;;;;2.80;1.48;;;15.30;99.90;;;;;;7384154;19;20146;-79
2023/10/11 03:39:15;;;;;;;1.60;1.45;;;15.40;99.90;;;;;;7383831;19;20142;-76
2023/10/11 03:41:46;;;;;;;1.38;1.17;;;15.40;99.90;;;;;;7385363;19;20220;-79
2023/10/11 03:44:17;;;;;;;2.97;1.73;;;15.20;99.90;;;;;;7384367;19;20172;-78
2023/10/11 03:47:05;;;;;;;2.85;1.40;;;15.40;99.90;;;;;;7388968;19;20596;-79
2023/10/11 03:51:57;;;;;;;1.98;1.00;;;15.40;99.90;;;;;;7386470;19;20127;-79
2023/10/11 03:54:23;;;;;;;2.65;1.30;;;15.20;99.90;;;;;;7386328;19;20658;-79
2023/10/11 03:56:53;;;;;;;2.35;1.50;;;15.10;99.90;;;;;;7384817;19;20135;-79
2023/10/11 03:59:20;;;;;;;2.33;1.58;;;15.20;99.90;;;;;;7385784;19;20217;-80
2023/10/11 04:01:47;;;;;;;2.17;1.42;;;15.20;99.90;;;;;;7384931;19;20157;-78
2023/10/11 04:04:13;;;;;;;3.45;1.65;;;15.20;99.90;;;;;;7386742;19;20159;-79
2023/10/11 04:06:39;;;;;;;2.75;1.52;;;15.40;99.90;;;;;;7380811;19;20223;-79
2023/10/11 04:11:54;;;;;;;1.30;1.20;;;15.60;99.90;;;;;;7390051;19;20154;-78
2023/10/11 04:14:24;;;;;;;1.73;1.20;;;15.60;99.90;;;;;;7392314;19;20169;-78
2023/10/11 04:16:56;;;;;;;2.78;2.00;;;15.60;99.90;;;;;;7393198;19;20154;-79
2023/10/11 04:19:21;;;;;;;2.75;1.77;;;15.30;99.90;;;;;;7390449;19;20138;-79
2023/10/11 04:24:19;;;;;;;2.53;1.83;;;15.40;99.90;;;;;;7389221;19;20158;-78
2023/10/11 04:27:45;;;;;;;2.38;1.40;;;15.50;99.90;;;;;;7392035;19;20154;-79
2023/10/11 04:29:40;;;;;;;2.30;1.67;;;15.60;99.90;;;;;;7392617;19;20158;-78
2023/10/11 04:32:19;;;;;;;1.80;1.50;;;15.70;99.90;;;;;;7391985;19;20572;-79
2023/10/11 04:34:55;;;;;;;2.80;1.73;;;15.60;99.90;;;;;;7391609;19;20242;-77
2023/10/11 04:37:43;;;;;;;2.10;1.55;;;15.50;99.90;;;;;;7390527;19;20134;-78
2023/10/11 04:40:23;;;;;;;4.57;2.10;;;15.40;99.90;;;;;;7392690;19;20600;-78
2023/10/11 04:43:04;;;;;;;1.88;1.50;;;15.20;99.90;;;;;;7386299;19;20541;-78
2023/10/11 04:45:31;;;;;;;2.90;1.33;;;15.10;99.90;;;;;;7389889;19;20134;-79
2023/10/11 04:47:58;;;;;;;2.22;1.48;;;15.10;99.90;;;;;;7393332;19;20156;-80
2023/10/11 04:50:24;;;;;;;2.20;1.90;;;15.10;99.90;;;;;;7388223;19;20143;-80
2023/10/11 04:52:50;;;;;;;2.78;1.77;;;15.30;99.90;;;;;;7391092;19;20143;-79
2023/10/11 04:55:16;;;;;;;2.22;1.58;;;15.40;99.90;;;;;;7390441;19;20584;-79
2023/10/11 04:58:04;;;;;;;3.70;1.63;;;15.50;99.90;;;;;;7390376;19;20174;-78
2023/10/11 05:00:43;;;;;;;1.90;1.52;;;15.60;99.90;;;;;;7391002;19;20145;-78
2023/10/11 05:03:10;;;;;;;2.28;1.50;;;15.50;99.90;;;;;;7389114;19;20958;-81
2023/10/11 05:05:41;;;;;;;4.25;1.67;;;15.50;99.90;;;;;;7390388;19;20180;-78
2023/10/11 05:08:20;;;;;;;2.67;1.92;;;15.50;99.90;;;;;;7389138;19;20472;-78
2023/10/11 05:10:50;;;;;;;3.10;1.92;;;15.60;99.90;;;;;;7391310;19;20177;-78
2023/10/11 05:13:19;;;;;;;4.03;1.88;;;15.50;99.90;;;;;;7388830;19;20206;-77
2023/10/11 05:15:47;;;;;;;3.03;1.83;;;15.60;99.90;;;;;;7390616;19;20604;-78
2023/10/11 05:18:18;;;;;;;3.08;1.58;;;15.60;99.90;;;;;;7388537;19;20539;-79
2023/10/11 05:20:57;;;;;;;1.83;1.15;;;15.50;99.90;;;;;;7388814;19;20148;-78
2023/10/11 05:23:33;;;;;;;1.65;1.45;;;15.50;99.90;;;;;;7391669;19;20151;-79
2023/10/11 05:25:59;;;;;;;2.85;1.80;;;15.40;99.90;;;;;;7387980;19;20142;-78
2023/10/11 05:28:44;;;;;;;2.42;1.33;;;15.40;99.90;;;;;;7389706;19;20125;-78
2023/10/11 05:36:51;;;;;;;2.08;1.55;;;15.30;99.90;;;;;;7390929;19;20141;-80
2023/10/11 05:52:58;;;;;;;3.00;1.17;;;15.30;99.90;;;;;;7386751;19;20158;-78
2023/10/11 05:55:24;;;;;;;2.65;1.60;;;15.30;99.90;;;;;;7389728;19;20167;-77
2023/10/11 05:57:50;;;;;;;3.28;1.90;;;15.40;99.90;;;;;;7390475;19;20510;-79
2023/10/11 06:00:26;;;;;;;1.92;1.38;;;15.40;99.90;;;;;;7389599;19;20263;-78
2023/10/11 06:02:52;;;;;;;2.90;1.73;;;15.40;99.90;;;;;;7386310;19;20623;-77
2023/10/11 06:05:23;;;;;;;2.63;2.03;;;15.40;99.90;;;;;;7388250;19;20177;-78
2023/10/11 06:08:24;;;;;;;2.67;1.85;;;15.40;99.90;;;;;;7388205;19;20143;-78
2023/10/11 06:10:42;;;;;;;2.70;1.75;;;15.40;99.90;;;;;;7388265;19;20158;-78
2023/10/11 06:13:13;;;;;;;3.42;2.10;;;15.40;99.90;;;;;;7387865;19;20142;-77
2023/10/11 06:15:58;;;;;;;1.85;1.50;;;15.40;99.90;;;;;;7388268;19;20131;-80
2023/10/11 06:18:55;;;;;;;3.03;2.15;;;15.40;99.90;;;;;;7386875;19;20138;-78
2023/10/11 06:21:32;;;;;;;3.22;2.00;;;15.30;99.90;;;;;;7386588;19;20146;-78
2023/10/11 06:24:03;;;;;;;2.70;1.95;;;15.30;99.90;;;;;;7389455;19;20166;-80
2023/10/11 06:29:07;;;;;;;3.42;1.80;;;15.30;99.90;;;;;;7390127;19;20134;-77
2023/10/11 06:31:39;;;;;;;2.45;1.60;;;15.30;99.90;;;;;;7385626;19;20564;-79
2023/10/11 06:34:15;;;;;;;1.63;1.33;;;15.40;99.90;;;;;;7388587;19;20940;-78
2023/10/11 06:36:50;;;;;;;3.20;1.75;;;15.40;99.90;;;;;;7387414;19;20146;-77
2023/10/11 06:42:21;;;;;;;3.00;1.98;;;15.50;99.90;;;;;;7388763;19;20138;-78
2023/10/11 06:44:59;;;;;;;1.88;1.48;;;15.40;99.90;;;;;;7387154;19;20138;-78
2023/10/11 06:47:35;;;;;;;1.95;1.48;;;15.40;99.90;;;;;;7387565;19;20667;-77
2023/10/11 06:50:11;;;;;;;1.30;1.20;;;15.50;99.90;;;;;;7388379;19;20134;-78
2023/10/11 06:52:43;;;;;;;2.22;1.45;;;15.50;99.90;;;;;;7386974;19;20167;-77
2023/10/11 06:57:40;;;;;;;2.00;1.52;;;15.60;99.90;;;;;;7385935;19;20150;-76
2023/10/11 07:02:54;;;;;;;2.28;1.75;;;15.60;99.90;;;;;;7383969;19;20595;-77
2023/10/11 07:05:20;;;;;;;2.22;1.60;;;15.60;99.90;;;;;;7385028;19;20607;-77
2023/10/11 07:07:52;;;;;;;3.00;2.00;;;15.60;99.90;;;;;;7387458;19;20854;-78
2023/10/11 07:10:34;;;;;;;2.63;1.67;;;15.60;99.90;;;;;;7386666;19;20436;-77
2023/10/11 07:13:05;;;;;;;2.75;1.88;;;15.70;99.90;;;;;;7389364;19;20149;-78
2023/10/11 07:15:47;;;;;;;4.85;2.05;;;15.70;99.90;;;;;;7386271;19;20154;-77
2023/10/11 07:18:27;;;;;;;2.67;1.73;;;15.70;99.90;;;;;;7386120;19;20149;-78
2023/10/11 07:21:16;;;;;;;2.65;1.50;;;15.80;99.90;;;;;;7389344;19;20168;-77
2023/10/11 07:29:05;;;;;;;2.05;1.65;;;15.90;99.90;;;;;;7388413;19;20134;-81
2023/10/11 07:31:32;;;;;;;3.78;2.20;;;15.90;99.90;;;;;;7390472;19;20138;-81
2023/10/11 07:34:05;;;;;;;3.30;2.28;;;16.00;99.90;;;;;;7386557;19;20135;-82
2023/10/11 07:36:38;;;;;;;2.28;1.70;;;16.00;99.90;;;;;;7385879;19;20274;-77
2023/10/11 07:42:08;;;;;;;4.93;2.55;;;16.00;99.90;;;;;;7389377;19;20147;-77
2023/10/11 07:44:38;;;;;;;3.50;2.10;;;15.90;99.90;;;;;;7391265;19;20142;-76
2023/10/11 07:47:14;;;;;;;5.28;3.13;;;15.90;99.90;;;;;;7391981;19;20147;-76
2023/10/11 07:49:41;;;;;;;3.30;2.08;;;16.00;99.90;;;;;;7390915;19;20582;-75
2023/10/11 07:52:09;;;;;;;2.72;2.00;;;16.10;99.90;;;;;;7394013;19;20493;-77
2023/10/11 07:54:36;;;;;;;2.78;1.73;;;16.20;99.90;;;;;;7398386;19;20150;-78
2023/10/11 07:57:03;;;;;;;3.58;2.05;;;16.20;99.90;;;;;;7390021;19;20591;-77
2023/10/11 07:59:30;;;;;;;2.65;2.05;;;16.30;99.90;;;;;;7397483;19;20130;-75
2023/10/11 08:02:08;;;;;;;3.80;2.50;;;16.40;99.90;;;;;;7390659;19;20169;-77
2023/10/11 08:04:44;;;;;;;3.88;2.30;;;16.50;99.90;;;;;;7392118;19;20134;-76
2023/10/11 08:07:16;;;;;;;2.50;1.98;;;16.40;99.90;;;;;;7395443;19;20138;-77
2023/10/11 08:09:45;;;;;;;4.68;2.45;;;16.40;99.90;;;;;;7393650;19;20135;-77
2023/10/11 08:12:16;;;;;;;2.38;2.17;;;16.50;99.90;;;;;;7390964;19;20737;-78
2023/10/11 08:14:45;;;;;;;2.50;2.10;;;16.60;99.90;;;;;;7389689;19;20576;-77
2023/10/11 08:17:16;;;;;;;2.40;1.90;;;16.40;99.90;;;;;;7392237;19;20145;-78
2023/10/11 08:19:53;;;;;;;5.40;2.15;;;16.50;99.90;;;;;;7393011;19;20231;-77
2023/10/11 08:22:19;;;;;;;2.38;1.70;;;16.60;99.90;;;;;;7391385;19;20142;-79
2023/10/11 08:24:48;;;;;;;4.03;2.22;;;16.80;99.90;;;;;;7392522;19;20147;-78
2023/10/11 08:29:56;;;;;;;3.13;1.60;;;16.90;99.90;;;;;;7390945;19;20547;-77
2023/10/11 08:32:25;;;;;;;2.42;1.52;;;16.90;99.90;;;;;;7391566;19;20604;-77
2023/10/11 08:34:51;;;;;;;4.50;1.58;;;17.00;99.90;;;;;;7393901;19;20544;-78
2023/10/11 08:37:17;;;;;;;2.28;1.33;;;17.10;99.90;;;;;;7392288;19;20160;-78
2023/10/11 08:39:46;;;;;;;1.90;1.50;;;17.10;99.90;;;;;;7394070;19;20146;-78
2023/10/11 08:42:14;;;;;;;2.75;1.48;;;17.20;99.90;;;;;;7390786;19;20683;-79
2023/10/11 08:44:44;;;;;;;1.73;1.23;;;17.20;99.90;;;;;;7390414;19;20138;-79
2023/10/11 08:47:19;;;;;;;2.97;1.73;;;17.00;99.90;;;;;;7392575;19;20158;-79
2023/10/11 08:49:48;;;;;;;2.80;2.20;;;17.00;99.90;;;;;;7392824;19;20138;-78
2023/10/11 08:52:28;;;;;;;2.60;2.08;;;17.00;99.90;;;;;;7392246;19;20153;-78
2023/10/11 08:54:53;;;;;;;8.60;4.00;;;17.10;99.90;;;;;;7391652;19;20618;-78
2023/10/11 08:57:31;;;;;;;3.03;1.75;;;17.10;99.90;;;;;;7391368;19;20221;-79
2023/10/11 08:59:58;;;;;;;2.85;1.73;;;17.40;99.90;;;;;;7391389;19;20143;-77
2023/10/11 09:02:33;;;;;;;2.55;1.63;;;17.70;99.90;;;;;;7392889;19;20163;-76
2023/10/11 09:05:06;;;;;;;2.58;1.90;;;17.90;99.90;;;;;;7396146;19;20238;-79
2023/10/11 09:07:44;;;;;;;3.13;2.35;;;17.90;99.90;;;;;;7390413;19;20599;-80
2023/10/11 09:10:25;;;;;;;2.08;1.45;;;17.90;99.90;;;;;;7390614;19;20145;-78
2023/10/11 09:12:58;;;;;;;3.40;1.40;;;17.90;99.90;;;;;;7391607;19;20146;-79
2023/10/11 09:15:37;;;;;;;2.28;1.80;;;18.00;99.90;;;;;;7391904;19;20593;-77
2023/10/11 09:18:15;;;;;;;2.72;1.80;;;18.10;99.90;;;;;;7391004;19;20142;-77
2023/10/11 09:20:44;;;;;;;6.90;4.28;;;18.50;99.90;;;;;;7388458;19;20150;-78
2023/10/11 09:23:14;;;;;;;3.05;1.92;;;18.50;99.90;;;;;;7388847;19;20130;-78
2023/10/11 09:25:58;;;;;;;4.15;1.88;;;19.00;99.90;;;;;;7388318;19;20141;-79
2023/10/11 09:28:33;;;;;;;1.83;1.55;;;19.20;99.90;;;;;;7390557;19;20154;-79
2023/10/11 09:31:10;;;;;;;4.20;1.90;;;19.40;99.90;;;;;;7393235;19;20178;-79
2023/10/11 09:33:41;;;;;;;4.50;2.33;;;19.60;99.90;;;;;;7389318;19;20150;-79
2023/10/11 09:36:08;;;;;;;4.72;2.20;;;19.70;99.90;;;;;;7389956;19;20142;-79
2023/10/11 09:38:41;;;;;;;3.75;2.35;;;19.80;99.90;;;;;;7390471;19;20130;-79
2023/10/11 09:41:08;;;;;;;2.88;1.80;;;19.90;99.90;;;;;;7394586;19;20954;-79
2023/10/11 09:43:44;;;;;;;2.50;2.03;;;20.00;99.90;;;;;;7396161;19;20142;-78
2023/10/11 09:46:11;;;;;;;3.40;2.05;;;20.20;99.90;;;;;;7388889;19;20619;-79
2023/10/11 09:48:43;;;;;;;2.88;1.77;;;20.20;99.90;;;;;;7389595;19;20538;-80
2023/10/11 09:51:17;;;;;;;2.25;1.80;;;20.20;99.90;;;;;;7389263;19;20210;-78
2023/10/11 09:53:49;;;;;;;2.00;1.08;;;20.30;99.90;;;;;;7386680;19;20145;-78
2023/10/11 09:56:29;;;;;;;5.43;2.08;;;20.50;99.90;;;;;;7392250;19;20134;-85
2023/10/11 09:59:34;;;;;;;2.97;2.13;;;20.60;99.90;;;;;;7392264;19;20126;-82
2023/10/11 10:02:20;;;;;;;3.42;1.83;;;20.70;99.90;;;;;;7390612;19;20603;-83
2023/10/11 10:04:52;;;;;;;2.25;1.27;;;20.80;99.90;;;;;;7393573;19;20138;-83
2023/10/11 10:07:25;;;;;;;4.63;2.85;;;21.00;99.90;;;;;;7392442;19;20535;-79
2023/10/11 10:09:53;;;;;;;3.55;2.17;;;21.20;99.90;;;;;;7388852;19;20651;-80
2023/10/11 10:12:25;;;;;;;2.53;1.58;;;21.30;99.90;;;;;;7389138;19;20138;-81
2023/10/11 10:15:11;;;;;;;3.75;2.05;;;21.40;99.90;;;;;;7388724;19;21236;-81
2023/10/11 10:17:38;;;;;;;2.80;1.50;;;21.50;99.90;;;;;;7391644;19;20213;-79
2023/10/11 10:20:43;;;;;;;6.88;1.50;;;21.60;99.90;;;;;;7388443;19;20138;-82
2023/10/11 10:23:17;;;;;;;3.08;1.60;;;21.80;99.90;;;;;;7384237;19;20398;-80
2023/10/11 10:25:48;;;;;;;3.00;1.60;;;21.80;99.90;;;;;;7398281;19;20587;-91
2023/10/11 10:28:34;;;;;;;2.22;1.20;;;21.80;99.90;;;;;;7394587;19;20584;-89
2023/10/11 10:31:17;;;;;;;3.35;1.55;;;22.00;99.90;;;;;;7393137;19;20166;-87
2023/10/11 10:33:51;;;;;;;1.50;1.40;;;22.20;99.90;;;;;;7397767;19;20154;-88
2023/10/11 10:36:20;;;;;;;2.75;1.65;;;22.30;99.90;;;;;;7401510;19;20126;-87
2023/10/11 10:39:01;;;;;;;2.53;1.75;;;22.40;99.90;;;;;;7395208;19;20150;-85
2023/10/11 10:41:44;;;;;;;2.03;1.35;;;22.50;99.90;;;;;;7393353;19;20157;-88
2023/10/11 10:44:16;;;;;;;2.92;1.70;;;22.50;99.90;;;;;;7398970;19;20149;-87
2023/10/11 10:46:46;;;;;;;2.40;1.38;;;22.60;99.90;;;;;;7393177;19;20138;-86
2023/10/11 10:49:12;;;;;;;2.92;1.65;;;22.70;99.90;;;;;;7392843;19;20149;-85
2023/10/11 10:51:39;;;;;;;2.42;1.58;;;22.70;99.90;;;;;;7393664;19;20146;-87
2023/10/11 10:54:15;;;;;;;3.00;1.90;;;22.70;99.90;;;;;;7399351;19;20135;-86
2023/10/11 10:56:45;;;;;;;4.30;2.20;;;22.90;99.90;;;;;;7397197;19;20138;-88
2023/10/11 10:59:14;;;;;;;1.95;1.38;;;23.00;99.90;;;;;;7392849;19;20210;-84
2023/10/11 11:01:46;;;;;;;3.30;1.95;;;22.90;99.90;;;;;;7389025;19;20143;-84
2023/10/11 11:04:14;;;;;;;2.38;1.52;;;22.90;99.90;;;;;;7394670;19;20909;-85
2023/10/11 11:06:45;;;;;;;2.33;1.50;;;22.80;99.90;;;;;;7390617;19;20178;-86
2023/10/11 11:09:15;;;;;;;4.07;1.73;;;22.90;99.90;;;;;;7392970;19;20226;-91
2023/10/11 11:11:42;;;;;;;9.52;1.80;;;23.00;99.90;;;;;;7399455;19;20146;-89
2023/10/11 11:14:23;;;;;;;3.83;1.58;;;23.00;99.90;;;;;;7404392;19;20174;-87
2023/10/11 11:17:00;;;;;;;3.38;1.70;;;23.30;99.90;;;;;;7396438;19;20872;-87
2023/10/11 11:19:27;;;;;;;2.65;1.65;;;23.40;99.90;;;;;;7399040;19;20130;-87
2023/10/11 11:22:12;;;;;;;1.88;1.40;;;23.50;99.90;;;;;;7397968;19;20655;-88
2023/10/11 11:24:41;;;;;;;2.92;1.85;;;23.60;99.90;;;;;;7397162;19;20134;-86
2023/10/11 11:27:26;;;;;;;3.72;2.80;;;23.60;99.90;;;;;;7397027;19;20130;-87
2023/10/11 11:29:53;;;;;;;2.28;1.58;;;23.60;99.90;;;;;;7396882;19;20142;-86
2023/10/11 11:32:37;;;;;;;2.70;1.52;;;23.70;99.90;;;;;;7398966;19;20216;-88
2023/10/11 11:35:09;;;;;;;3.58;1.70;;;23.70;99.90;;;;;;7402007;19;20143;-88
2023/10/11 11:38:01;;;;;;;2.08;1.50;;;23.90;99.90;;;;;;7400855;19;20146;-88
2023/10/11 11:40:27;;;;;;;3.05;1.77;;;24.00;99.90;;;;;;7396809;19;20492;-86
2023/10/11 11:42:53;;;;;;;1.77;1.13;;;24.00;99.90;;;;;;7400398;19;20222;-86
2023/10/11 11:45:20;;;;;;;4.82;2.47;;;24.10;99.90;;;;;;7401248;19;20150;-89
2023/10/11 11:47:58;;;;;;;2.17;1.30;;;24.10;99.90;;;;;;7400317;19;20166;-88
2023/10/11 11:50:30;;;;;;;1.58;1.27;;;24.00;99.90;;;;;;7397275;19;20142;-84
2023/10/11 11:52:57;;;;;;;2.22;1.25;;;24.10;99.90;;;;;;7396141;19;20170;-80
2023/10/11 11:55:23;;;;;;;2.80;1.38;;;24.20;99.90;;;;;;7396522;19;20130;-80
2023/10/11 11:57:50;;;;;;;2.45;2.05;;;24.30;99.90;;;;;;7399968;19;20147;-81
2023/10/11 12:02:58;;;;;;;2.28;1.30;;;24.50;99.90;;;;;;7396189;19;20257;-85
2023/10/11 12:05:27;;;;;;;1.58;1.10;;;24.70;99.90;;;;;;7398339;19;20174;-86
2023/10/11 12:07:57;;;;;;;1.10;0.82;;;24.70;99.90;;;;;;7397907;19;20595;-89
2023/10/11 12:10:25;;;;;;;1.13;0.90;;;24.70;99.90;;;;;;7401603;19;20168;-90
2023/10/11 12:13:05;;;;;;;3.13;1.30;;;24.90;99.90;;;;;;7395354;19;20142;-87
2023/10/11 12:15:39;;;;;;;1.48;1.05;;;24.90;99.90;;;;;;7395165;19;20146;-86
2023/10/11 12:18:05;;;;;;;1.05;0.93;;;24.90;99.90;;;;;;7396387;19;21277;-85
2023/10/11 12:20:35;;;;;;;1.17;0.90;;;25.00;99.90;;;;;;7394539;19;20143;-83
2023/10/11 12:23:07;;;;;;;1.52;1.20;;;25.00;99.70;;;;;;7393752;19;20612;-81
2023/10/11 12:25:37;;;;;;;2.70;1.10;;;25.00;99.90;;;;;;7395054;19;20158;-82
2023/10/11 12:28:04;;;;;;;1.17;1.02;;;24.90;99.90;;;;;;7395341;19;20143;-84
2023/10/11 12:30:33;;;;;;;2.03;1.40;;;24.80;99.90;;;;;;7396404;19;20258;-81
2023/10/11 12:33:07;;;;;;;1.63;1.00;;;24.80;99.90;;;;;;7395157;19;20134;-80
2023/10/11 12:35:40;;;;;;;1.60;1.35;;;24.80;99.90;;;;;;7400025;19;20130;-82
2023/10/11 12:38:12;;;;;;;2.72;1.00;;;24.80;99.90;;;;;;7395839;19;20146;-85
2023/10/11 12:40:41;;;;;;;1.45;1.17;;;25.00;99.90;;;;;;7395860;19;20482;-82
2023/10/11 12:43:07;;;;;;;1.00;0.90;;;25.20;99.80;;;;;;7391404;19;20138;-80
2023/10/11 12:45:35;;;;;;;1.40;1.00;;;25.30;99.10;;;;;;7393100;19;20131;-85
2023/10/11 12:48:06;;;;;;;2.42;1.38;;;25.20;99.70;;;;;;7395150;19;20131;-81
2023/10/11 12:50:36;;;;;;;1.80;1.10;;;25.00;99.90;;;;;;7393552;19;20191;-81
2023/10/11 12:53:10;;;;;;;1.00;0.82;;;25.30;99.60;;;;;;7394847;19;20487;-81
2023/10/11 12:55:45;;;;;;;2.13;1.10;;;25.20;99.90;;;;;;7395126;19;20169;-84
2023/10/11 12:58:14;;;;;;;3.92;3.15;;;25.10;99.50;;;;;;7398579;19;20146;-82
2023/10/11 13:03:40;;;;;;;1.40;1.10;;;25.40;99.20;;;;;;7395841;19;20202;-83
2023/10/11 13:06:10;;;;;;;2.72;1.40;;;25.30;99.60;;;;;;7391245;19;20178;-82
2023/10/11 13:08:37;;;;;;;2.05;0.88;;;25.10;99.80;;;;;;7395345;19;20131;-84
2023/10/11 13:11:05;;;;;;;3.22;1.52;;;25.00;99.90;;;;;;7393902;19;20640;-82
2023/10/11 13:13:35;;;;;;;3.53;2.20;;;25.00;99.90;;;;;;7392754;19;20139;-79
2023/10/11 13:16:00;;;;;;;1.48;0.98;;;25.00;99.90;;;;;;7392716;19;20159;-83
2023/10/11 13:18:27;;;;;;;2.00;1.33;;;24.90;99.90;;;;;;7393182;19;20241;-81
2023/10/11 13:20:55;;;;;;;2.55;1.35;;;24.80;99.90;;;;;;7393441;19;20615;-82
2023/10/11 13:23:28;;;;;;;1.23;1.10;;;24.70;99.90;;;;;;7395430;19;20149;-80
2023/10/11 13:26:06;;;;;;;1.17;0.90;;;24.90;96.80;;;;;;7398646;19;20143;-82
2023/10/11 13:28:33;;;;;;;1.92;0.90;;;24.90;96.00;;;;;;7399515;19;20151;-82
2023/10/11 13:31:01;;;;;;;1.17;0.70;;;25.00;96.30;;;;;;7399913;19;20127;-83
2023/10/11 13:33:37;;;;;;;1.52;0.98;;;25.10;95.30;;;;;;7399962;19;20150;-85
2023/10/11 13:36:05;;;;;;;1.58;0.98;;;24.90;96.80;;;;;;7395605;19;20149;-82
2023/10/11 13:38:31;;;;;;;10.70;7.32;;;24.90;95.90;;;;;;7394951;19;20238;-81
2023/10/11 13:41:01;;;;;;;1.42;1.00;;;25.00;95.80;;;;;;7393748;19;20235;-76
2023/10/11 13:43:27;;;;;;;1.58;1.10;;;25.10;94.90;;;;;;7395067;19;20642;-88
2023/10/11 13:45:56;;;;;;;0.90;0.52;;;25.10;93.40;;;;;;7395434;19;20142;-87
2023/10/11 13:48:26;;;;;;;1.42;0.88;;;25.20;92.60;;;;;;7397266;19;20131;-84
2023/10/11 13:50:54;;;;;;;1.45;0.80;;;25.20;92.00;;;;;;7396080;19;20142;-83
2023/10/11 13:53:23;;;;;;;0.95;0.75;;;25.20;92.10;;;;;;7396844;19;20135;-85
2023/10/11 13:55:51;;;;;;;1.20;0.70;;;25.20;92.10;;;;;;7395387;19;20153;-83
2023/10/11 13:58:17;;;;;;;1.55;0.70;;;25.30;91.20;;;;;;7392871;19;20423;-83
2023/10/11 14:05:42;;;;;;;1.52;0.90;;;25.20;91.80;;;;;;7391375;19;20722;-83
2023/10/11 14:08:24;;;;;;;2.33;0.88;;;25.10;91.70;;;;;;7393078;19;20151;-84
2023/10/11 14:10:54;;;;;;;1.42;0.73;;;25.00;91.10;;;;;;7392297;19;20157;-84
2023/10/11 14:13:24;;;;;;;3.50;0.77;;;25.10;91.40;;;;;;7393018;19;20130;-84